Time;durP1;ratioP1;P1;durP2;ratioP2;P2;SDS_P1;SDS_P2;PMS_P1;PMS_P2;Temp;Humidity;BMP_temperature;BMP_pressure;BME280_temperature;BME280_humidity;BME280_pressure;Samples;Min_cycle;Max_cycle;Signal;HPM_P1;HPM_P2
2023/01/14 00:00:24;;;;;;;4.90;1.23;;;7.00;99.90;;;;;;5010080;28;20390;-49
2023/01/14 00:02:50;;;;;;;6.70;1.20;;;6.10;99.90;;;;;;5010756;28;20389;-49
2023/01/14 00:05:16;;;;;;;5.28;1.15;;;5.30;1.00;;;;;;5009957;28;20403;-50
2023/01/14 00:07:41;;;;;;;7.90;1.30;;;5.30;1.00;;;;;;5010529;28;20397;-49
2023/01/14 00:10:08;;;;;;;4.90;1.30;;;6.50;71.50;;;;;;5008222;28;20396;-49
2023/01/14 00:12:33;;;;;;;8.13;1.40;;;5.20;99.90;;;;;;5010714;28;20385;-48
2023/01/14 00:14:59;;;;;;;5.27;1.40;;;6.00;99.90;;;;;;5010146;28;20429;-49
2023/01/14 00:17:25;;;;;;;9.30;1.20;;;5.20;99.90;;;;;;5009780;28;20451;-51
2023/01/14 00:19:50;;;;;;;12.30;1.70;;;5.60;99.90;;;;;;5008606;28;20742;-50
2023/01/14 00:22:16;;;;;;;6.10;1.20;;;5.20;97.30;;;;;;5008995;28;20475;-50
2023/01/14 00:24:42;;;;;;;8.33;1.20;;;5.10;99.90;;;;;;5009771;28;20408;-52
2023/01/14 00:27:07;;;;;;;9.40;1.80;;;5.00;99.90;;;;;;5009247;28;20475;-50
2023/01/14 00:29:34;;;;;;;5.40;1.20;;;5.70;99.90;;;;;;5010294;28;20389;-50
2023/01/14 00:32:05;;;;;;;7.35;1.10;;;4.90;99.90;;;;;;5010146;28;20377;-50
2023/01/14 00:34:33;;;;;;;8.70;2.00;;;4.90;99.90;;;;;;5009566;28;20407;-50
2023/01/14 00:36:59;;;;;;;5.60;1.40;;;6.00;99.90;;;;;;5008635;28;20896;-50
2023/01/14 00:39:25;;;;;;;8.45;1.55;;;5.10;99.90;;;;;;5008956;28;20385;-50
2023/01/14 00:41:51;;;;;;;9.65;1.30;;;5.10;99.90;;;;;;5009906;28;20381;-49
2023/01/14 00:44:19;;;;;;;5.35;1.33;;;6.80;41.00;;;;;;5009133;28;20404;-50
2023/01/14 00:46:45;;;;;;;7.82;1.55;;;5.10;99.90;;;;;;5010024;28;20384;-50
2023/01/14 00:49:17;;;;;;;7.00;1.40;;;6.80;99.90;;;;;;5009379;28;20385;-50
2023/01/14 00:51:43;;;;;;;8.63;1.40;;;5.10;84.80;;;;;;5009768;28;20763;-49
2023/01/14 00:54:08;;;;;;;5.50;1.50;;;5.00;66.30;;;;;;5009132;28;20908;-50
2023/01/14 00:56:34;;;;;;;6.15;1.20;;;5.10;99.90;;;;;;5009796;28;20384;-50
2023/01/14 00:58:59;;;;;;;7.90;1.10;;;5.00;99.90;;;;;;5010375;28;20483;-50
2023/01/14 01:01:26;;;;;;;7.05;1.40;;;5.10;99.90;;;;;;5007737;28;20435;-49
2023/01/14 01:03:57;;;;;;;6.35;1.63;;;5.80;99.90;;;;;;5009319;28;20404;-49
2023/01/14 01:06:24;;;;;;;8.18;1.35;;;5.10;99.90;;;;;;5008406;28;20474;-49
2023/01/14 01:08:50;;;;;;;8.23;1.40;;;5.10;99.90;;;;;;5009274;28;20887;-49
2023/01/14 01:11:18;;;;;;;7.83;1.67;;;5.10;38.40;;;;;;5008552;28;20480;-49
2023/01/14 01:13:44;;;;;;;8.13;1.70;;;6.50;45.30;;;;;;5007728;28;20481;-49
2023/01/14 01:16:13;;;;;;;8.32;1.83;;;6.40;1.00;;;;;;5008438;28;20408;-49
2023/01/14 01:18:40;;;;;;;6.10;1.50;;;6.90;1.00;;;;;;5009503;28;20850;-52
2023/01/14 01:21:17;;;;;;;10.70;1.60;;;5.00;1.00;;;;;;5008711;28;20538;-55
2023/01/14 01:23:44;;;;;;;5.20;1.20;;;7.00;1.00;;;;;;5009435;28;20428;-50
2023/01/14 01:26:19;;;;;;;8.55;1.23;;;5.70;1.00;;;;;;5008770;28;20383;-50
2023/01/14 01:28:48;;;;;;;6.90;1.13;;;5.70;1.00;;;;;;5009083;28;20421;-52
2023/01/14 01:31:14;;;;;;;5.65;1.48;;;5.00;1.00;;;;;;5008540;28;20397;-51
2023/01/14 01:33:40;;;;;;;7.13;1.20;;;6.40;1.00;;;;;;5009108;28;20759;-49
2023/01/14 01:36:14;;;;;;;10.85;2.10;;;5.10;1.00;;;;;;5008243;28;20395;-54
2023/01/14 01:38:41;;;;;;;8.55;1.20;;;5.20;99.90;;;;;;5008870;28;20777;-49
2023/01/14 01:41:06;;;;;;;7.45;1.40;;;6.40;99.90;;;;;;5008431;28;20384;-54
2023/01/14 01:43:33;;;;;;;5.85;1.25;;;5.20;1.00;;;;;;5008808;28;20878;-49
2023/01/14 01:45:59;;;;;;;5.57;1.33;;;7.10;1.00;;;;;;5006677;28;20389;-50
2023/01/14 01:48:39;;;;;;;8.63;1.80;;;5.30;99.90;;;;;;5008184;28;20388;-49
2023/01/14 01:51:18;;;;;;;6.47;1.20;;;5.30;99.90;;;;;;5007230;28;20468;-54
2023/01/14 01:53:48;;;;;;;7.72;1.20;;;5.50;1.00;;;;;;5007327;28;20523;-52
2023/01/14 01:56:17;;;;;;;6.40;1.00;;;6.70;1.00;;;;;;5008049;28;20399;-49
2023/01/14 01:58:44;;;;;;;10.25;1.45;;;5.70;1.00;;;;;;5008709;28;20389;-50
2023/01/14 02:01:11;;;;;;;8.10;0.90;;;5.70;1.00;;;;;;5007767;28;20711;-50
2023/01/14 02:03:41;;;;;;;7.63;1.08;;;5.60;1.00;;;;;;5008765;28;20707;-49
2023/01/14 02:06:07;;;;;;;4.80;1.20;;;5.50;1.00;;;;;;5008191;28;20501;-53
2023/01/14 02:08:35;;;;;;;6.28;0.90;;;5.50;1.00;;;;;;5008638;28;20451;-49
2023/01/14 02:11:18;;;;;;;7.80;0.95;;;6.50;1.00;;;;;;5008450;28;20381;-54
2023/01/14 02:14:06;;;;;;;6.63;1.10;;;5.50;1.00;;;;;;5008913;28;20442;-50
2023/01/14 02:16:40;;;;;;;6.60;1.20;;;5.40;99.90;;;;;;5008667;28;20405;-49
2023/01/14 02:19:17;;;;;;;6.43;1.23;;;5.40;1.00;;;;;;5008168;28;20392;-54
2023/01/14 02:22:14;;;;;;;6.50;1.30;;;5.50;1.00;;;;;;5008574;28;20393;-50
2023/01/14 02:25:07;;;;;;;6.10;1.27;;;5.40;99.90;;;;;;5008355;28;20459;-49
2023/01/14 02:27:38;;;;;;;5.30;1.00;;;5.30;99.90;;;;;;5008494;28;20916;-50
2023/01/14 02:30:19;;;;;;;7.23;1.13;;;5.30;1.00;;;;;;5007922;28;20389;-55
2023/01/14 02:32:59;;;;;;;5.38;0.80;;;5.30;1.00;;;;;;5008461;28;20907;-51
2023/01/14 02:35:41;;;;;;;5.13;1.00;;;5.30;1.00;;;;;;5007559;28;20413;-53
2023/01/14 02:38:33;;;;;;;6.80;1.00;;;5.10;21.40;;;;;;5007764;28;20437;-55
2023/01/14 02:44:06;;;;;;;6.78;0.90;;;4.90;99.90;;;;;;5008601;28;20385;-50
2023/01/14 02:44:13;;;;;;;7.70;0.90;;;4.90;99.90;;;;;;5007102;28;20438;-50
2023/01/14 02:46:53;;;;;;;7.53;1.00;;;4.80;99.90;;;;;;5008085;28;20416;-49
2023/01/14 02:49:23;;;;;;;5.70;0.90;;;4.80;99.90;;;;;;5007413;28;20473;-49
2023/01/14 02:51:49;;;;;;;5.65;0.80;;;5.00;1.00;;;;;;5007021;28;20446;-50
2023/01/14 02:54:17;;;;;;;5.60;1.10;;;4.90;1.00;;;;;;5006901;28;20428;-50
2023/01/14 02:56:45;;;;;;;7.00;1.20;;;5.00;1.00;;;;;;5006256;28;20384;-49
2023/01/14 02:59:11;;;;;;;6.67;1.20;;;5.10;1.00;;;;;;5011077;28;20396;-50
2023/01/14 03:02:04;;;;;;;7.90;1.50;;;5.20;1.00;;;;;;5011891;28;20384;-50
2023/01/14 03:04:39;;;;;;;7.53;1.05;;;5.30;99.90;;;;;;5011227;28;20389;-49
2023/01/14 03:07:13;;;;;;;6.28;1.00;;;5.50;1.00;;;;;;5011910;28;20877;-54
2023/01/14 03:09:41;;;;;;;6.60;1.20;;;5.60;99.90;;;;;;5011747;28;20804;-49
2023/01/14 03:12:26;;;;;;;6.57;1.50;;;6.80;1.00;;;;;;5010999;28;20936;-55
2023/01/14 03:14:59;;;;;;;6.80;1.00;;;5.80;99.90;;;;;;5011905;28;20408;-50
2023/01/14 03:17:34;;;;;;;8.27;1.33;;;5.70;54.40;;;;;;5009760;28;20753;-49
2023/01/14 03:20:06;;;;;;;6.05;1.30;;;5.70;1.00;;;;;;5011717;28;20475;-51
2023/01/14 03:22:32;;;;;;;6.90;0.97;;;5.80;1.00;;;;;;5010763;28;20409;-50
2023/01/14 03:25:00;;;;;;;8.90;1.00;;;5.70;99.90;;;;;;5011544;28;20396;-49
2023/01/14 03:27:30;;;;;;;5.20;1.00;;;7.70;99.90;;;;;;5010898;28;20377;-50
2023/01/14 03:30:03;;;;;;;5.65;0.80;;;5.70;99.90;;;;;;5011645;28;20423;-49
2023/01/14 03:32:45;;;;;;;7.10;0.90;;;5.70;99.90;;;;;;5010953;28;20389;-50
2023/01/14 03:35:36;;;;;;;8.63;1.30;;;5.60;99.90;;;;;;5010564;28;20495;-50
2023/01/14 03:38:33;;;;;;;8.35;1.10;;;6.80;1.00;;;;;;4998493;28;20423;-50
2023/01/14 03:41:00;;;;;;;5.97;0.98;;;5.70;99.90;;;;;;5011508;28;20385;-50
2023/01/14 03:43:41;;;;;;;5.57;1.00;;;6.80;99.90;;;;;;5009123;28;20395;-50
2023/01/14 03:46:07;;;;;;;7.30;0.98;;;5.70;1.00;;;;;;5010626;28;20389;-54
2023/01/14 03:48:32;;;;;;;10.20;1.10;;;5.70;99.90;;;;;;5010883;28;20895;-49
2023/01/14 03:51:16;;;;;;;6.13;1.08;;;5.80;99.90;;;;;;5010916;28;20385;-50
2023/01/14 03:53:55;;;;;;;8.70;1.00;;;5.80;99.90;;;;;;5010703;28;20491;-50
2023/01/14 03:56:43;;;;;;;8.50;1.10;;;5.90;1.00;;;;;;5002246;28;20414;-50
2023/01/14 03:59:18;;;;;;;9.13;1.40;;;5.90;1.00;;;;;;4990748;28;20435;-55
2023/01/14 04:01:54;;;;;;;10.32;1.00;;;5.70;1.00;;;;;;4990944;28;20925;-50
2023/01/14 04:04:23;;;;;;;7.78;1.30;;;5.50;1.00;;;;;;4990291;28;20422;-49
2023/01/14 04:06:48;;;;;;;4.10;0.70;;;5.50;1.00;;;;;;4991159;28;20452;-49
2023/01/14 04:09:14;;;;;;;7.88;0.80;;;5.50;1.00;;;;;;4989364;28;20763;-50
2023/01/14 04:11:40;;;;;;;6.70;1.13;;;5.50;1.00;;;;;;4991219;28;20390;-50
2023/01/14 04:16:50;;;;;;;7.20;0.80;;;5.50;1.00;;;;;;5010400;28;20396;-49
2023/01/14 04:19:16;;;;;;;5.70;1.03;;;6.40;99.90;;;;;;5009035;28;20392;-50
2023/01/14 04:21:41;;;;;;;9.43;1.00;;;5.30;1.00;;;;;;5010097;28;20377;-50
2023/01/14 04:24:07;;;;;;;11.30;1.10;;;5.20;99.90;;;;;;5010592;28;20408;-55
2023/01/14 04:26:33;;;;;;;6.45;0.98;;;5.10;1.00;;;;;;5009544;28;20387;-49
2023/01/14 04:28:59;;;;;;;4.90;0.90;;;5.10;99.90;;;;;;5010038;28;20389;-50
2023/01/14 04:31:24;;;;;;;5.67;1.10;;;6.80;1.00;;;;;;5009708;28;20738;-49
2023/01/14 04:33:51;;;;;;;5.50;0.90;;;5.20;99.90;;;;;;5009686;28;20409;-49
2023/01/14 04:36:16;;;;;;;5.97;1.00;;;6.40;99.90;;;;;;5008979;28;20401;-50
2023/01/14 04:38:42;;;;;;;5.60;1.07;;;5.60;99.90;;;;;;5009964;28;20391;-50
2023/01/14 04:42:26;;;;;;;5.80;0.77;;;5.10;15.80;;;;;;5009332;28;20380;-54
2023/01/14 04:43:53;;;;;;;7.53;1.08;;;5.00;99.90;;;;;;5009555;28;20455;-49
2023/01/14 04:46:19;;;;;;;6.07;1.02;;;5.00;99.90;;;;;;5008997;28;20749;-49
2023/01/14 04:48:45;;;;;;;6.40;0.80;;;6.00;1.00;;;;;;5009841;28;20396;-49
2023/01/14 04:51:10;;;;;;;5.23;0.77;;;5.00;1.00;;;;;;5009038;28;20491;-54
2023/01/14 04:53:36;;;;;;;7.20;1.10;;;5.00;1.00;;;;;;5009711;28;20842;-50
2023/01/14 04:56:01;;;;;;;6.43;1.10;;;5.00;1.00;;;;;;5010099;28;20385;-50
2023/01/14 04:58:27;;;;;;;5.95;1.02;;;5.00;1.00;;;;;;5008229;28;20384;-50
2023/01/14 05:00:53;;;;;;;6.50;0.90;;;5.10;1.00;;;;;;5009554;28;20381;-51
2023/01/14 05:03:19;;;;;;;7.03;0.80;;;5.10;1.00;;;;;;5006783;28;20400;-50
2023/01/14 05:05:45;;;;;;;8.02;1.27;;;5.20;99.90;;;;;;5009395;28;20528;-49
2023/01/14 05:08:12;;;;;;;4.97;1.23;;;5.30;99.90;;;;;;5007486;28;20476;-54
2023/01/14 05:10:38;;;;;;;5.65;0.80;;;5.30;99.90;;;;;;5009318;28;20395;-50
2023/01/14 05:13:07;;;;;;;5.75;0.70;;;6.40;1.00;;;;;;4991407;28;21243;-50
2023/01/14 05:15:37;;;;;;;11.25;1.80;;;5.40;1.00;;;;;;5008698;28;20416;-50
2023/01/14 05:18:03;;;;;;;5.07;0.90;;;5.50;99.90;;;;;;5009329;28;20388;-51
2023/01/14 05:20:29;;;;;;;5.07;0.68;;;5.40;99.90;;;;;;5008327;28;20523;-49
2023/01/14 05:23:00;;;;;;;4.60;0.80;;;7.20;1.00;;;;;;5009224;28;20537;-49
2023/01/14 05:25:27;;;;;;;9.00;1.00;;;5.50;99.90;;;;;;5008300;28;20396;-50
2023/01/14 05:27:53;;;;;;;6.65;0.90;;;5.50;99.90;;;;;;5009128;28;20389;-49
2023/01/14 05:30:19;;;;;;;6.57;1.00;;;7.10;1.00;;;;;;5008142;28;20850;-49
2023/01/14 05:32:45;;;;;;;3.90;0.60;;;5.40;1.00;;;;;;5008984;28;20393;-50
2023/01/14 05:35:10;;;;;;;6.05;0.90;;;5.40;1.00;;;;;;5008234;28;20495;-54
2023/01/14 05:37:36;;;;;;;7.30;1.10;;;6.30;1.00;;;;;;5009016;28;20381;-50
2023/01/14 05:40:02;;;;;;;5.67;0.90;;;5.50;99.90;;;;;;5007714;28;20394;-50
2023/01/14 05:47:57;;;;;;;7.30;1.00;;;7.20;99.90;;;;;;5008292;28;20520;-49
2023/01/14 05:50:23;;;;;;;7.60;0.88;;;5.30;1.00;;;;;;5006616;28;20496;-50
2023/01/14 05:52:48;;;;;;;5.70;0.70;;;6.30;73.30;;;;;;5008434;28;20877;-49
2023/01/14 05:55:14;;;;;;;6.60;1.10;;;7.20;1.00;;;;;;5007678;28;20413;-50
2023/01/14 05:57:40;;;;;;;4.57;0.63;;;5.30;99.90;;;;;;5007915;28;20389;-50
2023/01/14 06:00:06;;;;;;;5.93;0.93;;;5.30;99.90;;;;;;5008794;28;20417;-49
2023/01/14 06:08:03;;;;;;;6.55;1.00;;;5.40;1.00;;;;;;5008629;28;20384;-50
2023/01/14 06:10:29;;;;;;;8.30;1.10;;;5.40;1.00;;;;;;5007834;28;20447;-49
2023/01/14 06:12:58;;;;;;;6.53;1.17;;;7.10;14.80;;;;;;5006976;28;20536;-49
2023/01/14 06:15:36;;;;;;;5.07;0.90;;;5.40;99.90;;;;;;5007428;28;20886;-49
2023/01/14 06:18:12;;;;;;;5.88;1.00;;;5.40;1.00;;;;;;5008329;28;20816;-51
2023/01/14 06:20:38;;;;;;;5.50;0.70;;;5.50;1.00;;;;;;5008285;28;20409;-49
2023/01/14 06:23:05;;;;;;;8.80;0.80;;;5.50;1.00;;;;;;5008286;28;20417;-49
2023/01/14 06:25:32;;;;;;;6.90;1.10;;;5.50;99.90;;;;;;5006094;28;20400;-50
2023/01/14 06:28:02;;;;;;;8.10;1.35;;;5.50;99.90;;;;;;5008322;28;20519;-49
2023/01/14 06:30:28;;;;;;;6.43;0.90;;;5.50;99.90;;;;;;5007253;28;20389;-49
2023/01/14 06:32:54;;;;;;;6.00;0.80;;;5.50;99.90;;;;;;5010115;28;20403;-49
2023/01/14 06:35:21;;;;;;;7.20;1.20;;;5.50;99.90;;;;;;5011768;28;20440;-50
2023/01/14 06:37:46;;;;;;;6.50;1.10;;;6.40;99.90;;;;;;5012310;28;20396;-51
2023/01/14 06:40:13;;;;;;;7.53;0.90;;;7.10;1.00;;;;;;5010447;28;20770;-54
2023/01/14 06:42:40;;;;;;;7.15;1.23;;;5.60;1.00;;;;;;5010789;28;20737;-49
2023/01/14 06:45:10;;;;;;;8.10;1.30;;;5.60;1.00;;;;;;5012003;28;20499;-53
2023/01/14 06:47:35;;;;;;;5.20;1.10;;;5.50;1.00;;;;;;5011523;28;20392;-50
2023/01/14 06:50:01;;;;;;;5.50;1.10;;;5.60;1.00;;;;;;5011497;28;20384;-50
2023/01/14 06:52:27;;;;;;;7.10;0.90;;;5.70;1.00;;;;;;5010980;28;20400;-50
2023/01/14 06:54:53;;;;;;;6.70;1.00;;;6.60;1.00;;;;;;5011383;28;20412;-50
2023/01/14 06:57:19;;;;;;;7.43;1.02;;;5.90;99.90;;;;;;5009522;28;20430;-52
2023/01/14 06:59:45;;;;;;;5.65;0.77;;;7.00;90.30;;;;;;5004604;28;20458;-50
2023/01/14 07:02:12;;;;;;;7.10;1.00;;;6.10;1.00;;;;;;5009364;28;20414;-55
2023/01/14 07:04:38;;;;;;;9.77;1.40;;;6.40;1.00;;;;;;5005820;28;20422;-51
2023/01/14 07:07:04;;;;;;;9.10;0.85;;;6.20;1.00;;;;;;4999356;28;20418;-50
2023/01/14 07:09:30;;;;;;;5.70;1.00;;;6.20;1.00;;;;;;5006261;28;20395;-51
2023/01/14 07:11:55;;;;;;;5.90;1.10;;;6.20;1.00;;;;;;4993535;28;20459;-50
2023/01/14 07:14:21;;;;;;;6.80;0.90;;;6.20;1.00;;;;;;5007610;28;20417;-53
2023/01/14 07:16:47;;;;;;;7.25;0.95;;;7.80;1.00;;;;;;5009906;28;20474;-50
2023/01/14 07:19:12;;;;;;;4.70;1.00;;;7.80;1.00;;;;;;5010755;28;20852;-54
2023/01/14 07:21:38;;;;;;;6.40;1.13;;;6.20;1.00;;;;;;5010364;28;20503;-50
2023/01/14 07:24:05;;;;;;;11.85;1.10;;;6.30;1.00;;;;;;5005199;28;20460;-50
2023/01/14 07:26:30;;;;;;;8.00;1.00;;;6.30;1.00;;;;;;5003297;28;20482;-51
2023/01/14 07:28:56;;;;;;;10.27;1.25;;;6.40;99.90;;;;;;5004984;28;20431;-50
2023/01/14 07:31:22;;;;;;;5.60;0.63;;;6.40;99.90;;;;;;5001784;28;20386;-51
2023/01/14 07:33:47;;;;;;;5.82;0.95;;;8.10;99.90;;;;;;4998313;28;20386;-50
2023/01/14 07:36:13;;;;;;;7.80;1.10;;;6.30;99.90;;;;;;5001472;28;20444;-55
2023/01/14 07:38:39;;;;;;;5.32;0.88;;;6.20;99.90;;;;;;5007902;28;20492;-50
2023/01/14 07:41:23;;;;;;;6.68;0.90;;;8.00;1.00;;;;;;5004362;28;20412;-49
2023/01/14 07:43:49;;;;;;;8.00;1.10;;;6.10;1.00;;;;;;5009806;28;20846;-50
2023/01/14 07:46:16;;;;;;;9.98;1.27;;;6.30;1.00;;;;;;4994415;28;20409;-51
2023/01/14 07:48:43;;;;;;;4.60;0.80;;;6.30;1.00;;;;;;5008572;28;20512;-50
2023/01/14 07:51:13;;;;;;;8.18;0.85;;;6.70;1.00;;;;;;5009532;28;20397;-51
2023/01/14 07:53:39;;;;;;;7.82;1.25;;;6.30;1.00;;;;;;5010013;28;20962;-50
2023/01/14 07:56:06;;;;;;;8.38;1.20;;;6.30;99.90;;;;;;5004820;28;20940;-51
2023/01/14 07:58:32;;;;;;;8.15;1.52;;;6.30;1.00;;;;;;5008447;28;21061;-50
2023/01/14 08:00:58;;;;;;;9.05;1.30;;;6.40;1.00;;;;;;4995936;28;20389;-50
2023/01/14 08:03:24;;;;;;;7.73;1.07;;;6.40;1.00;;;;;;5007846;28;20496;-50
2023/01/14 08:05:51;;;;;;;8.40;1.70;;;6.40;1.00;;;;;;5006400;28;20418;-49
2023/01/14 08:08:17;;;;;;;7.47;1.00;;;6.40;1.00;;;;;;5006425;28;20404;-49
2023/01/14 08:10:43;;;;;;;5.38;0.80;;;6.40;1.00;;;;;;5001556;28;20399;-50
2023/01/14 08:13:13;;;;;;;6.30;1.30;;;6.70;1.00;;;;;;4999748;28;20377;-49
2023/01/14 08:15:38;;;;;;;6.80;1.00;;;6.50;1.00;;;;;;5002552;28;20452;-51
2023/01/14 08:18:04;;;;;;;6.40;1.13;;;7.50;1.00;;;;;;5001304;28;20428;-49
2023/01/14 08:20:30;;;;;;;5.80;0.90;;;6.50;1.00;;;;;;4996674;28;20390;-49
2023/01/14 08:22:59;;;;;;;10.70;1.70;;;6.70;1.00;;;;;;4997491;28;20985;-49
2023/01/14 08:25:26;;;;;;;6.88;1.17;;;6.80;1.00;;;;;;4998042;28;20383;-50
2023/01/14 08:27:52;;;;;;;7.93;1.15;;;6.90;99.90;;;;;;5000224;28;20386;-50
2023/01/14 08:30:18;;;;;;;6.00;0.90;;;6.80;99.90;;;;;;4998174;28;20403;-50
2023/01/14 08:32:44;;;;;;;5.00;0.70;;;7.00;99.90;;;;;;5001273;28;20389;-49
2023/01/14 08:35:09;;;;;;;5.85;0.80;;;6.90;1.00;;;;;;5001050;28;20432;-50
2023/01/14 08:37:35;;;;;;;8.70;0.90;;;7.00;1.00;;;;;;5003036;28;20389;-51
2023/01/14 08:40:01;;;;;;;11.00;1.33;;;7.20;1.00;;;;;;5004597;28;20435;-50
2023/01/14 08:42:27;;;;;;;9.38;1.55;;;9.20;99.90;;;;;;5001456;28;20493;-50
2023/01/14 08:44:53;;;;;;;6.53;1.30;;;7.40;99.90;;;;;;5000468;28;20885;-51
2023/01/14 08:47:19;;;;;;;6.20;0.80;;;7.80;99.90;;;;;;5005737;28;20493;-49
2023/01/14 08:49:44;;;;;;;8.80;1.00;;;7.50;99.90;;;;;;5005491;28;20405;-50
2023/01/14 08:52:10;;;;;;;7.70;0.90;;;7.60;99.90;;;;;;5000229;28;20397;-50
2023/01/14 08:54:36;;;;;;;6.10;0.80;;;7.70;99.90;;;;;;4989606;28;20884;-49
2023/01/14 08:57:01;;;;;;;5.13;0.80;;;9.40;99.90;;;;;;5006226;28;20387;-49
2023/01/14 08:59:27;;;;;;;9.20;0.97;;;7.80;99.90;;;;;;5003442;28;20866;-49
2023/01/14 09:01:52;;;;;;;5.65;1.30;;;8.00;99.90;;;;;;4992629;28;20934;-49
2023/01/14 09:04:18;;;;;;;5.50;0.80;;;8.00;99.90;;;;;;5008852;28;20431;-50
2023/01/14 09:17:42;;;;;;;9.03;1.30;;;8.20;99.90;;;;;;4998680;28;20443;-50
2023/01/14 09:20:10;;;;;;;6.80;1.10;;;8.30;99.90;;;;;;5009491;28;20396;-49
2023/01/14 09:22:36;;;;;;;6.50;0.70;;;8.20;99.90;;;;;;5007851;28;20506;-49
2023/01/14 09:25:02;;;;;;;5.77;0.80;;;8.20;99.90;;;;;;5009087;28;20862;-50
2023/01/14 09:27:29;;;;;;;5.65;1.20;;;8.30;99.90;;;;;;5008067;28;20408;-50
2023/01/14 09:29:55;;;;;;;8.73;0.90;;;8.20;99.90;;;;;;5009378;28;20916;-52
2023/01/14 09:32:20;;;;;;;5.67;0.90;;;8.30;99.90;;;;;;5008534;28;20385;-49
2023/01/14 09:34:49;;;;;;;6.25;0.70;;;8.30;99.90;;;;;;5008063;28;20428;-50
2023/01/14 09:37:19;;;;;;;7.20;1.00;;;8.40;99.90;;;;;;5008372;28;20389;-55
2023/01/14 09:39:45;;;;;;;7.00;0.73;;;8.50;99.90;;;;;;5007928;28;20393;-50
2023/01/14 09:42:27;;;;;;;7.32;0.85;;;8.50;99.90;;;;;;5009122;28;20392;-49
2023/01/14 09:45:04;;;;;;;5.47;0.93;;;8.50;99.90;;;;;;5009446;28;20399;-50
2023/01/14 09:47:30;;;;;;;4.88;0.60;;;8.70;99.90;;;;;;5008183;28;20400;-50
2023/01/14 09:49:55;;;;;;;6.17;0.90;;;8.70;99.90;;;;;;5009028;28;20495;-49
2023/01/14 09:52:30;;;;;;;5.70;1.20;;;8.80;99.90;;;;;;5007029;28;20881;-50
2023/01/14 09:55:20;;;;;;;6.20;0.83;;;8.90;99.90;;;;;;5009009;28;20450;-50
2023/01/14 09:57:54;;;;;;;4.68;0.70;;;9.00;99.90;;;;;;5008791;28;20755;-50
2023/01/14 10:00:41;;;;;;;7.93;0.98;;;9.10;99.90;;;;;;5008245;28;20504;-50
2023/01/14 10:03:17;;;;;;;5.50;0.60;;;9.30;77.60;;;;;;5007423;28;20922;-50
2023/01/14 10:05:53;;;;;;;5.50;0.90;;;9.30;1.00;;;;;;5008896;28;20387;-50
2023/01/14 10:08:20;;;;;;;5.80;0.80;;;9.30;1.00;;;;;;5006852;28;20385;-49
2023/01/14 10:10:47;;;;;;;4.20;0.75;;;9.40;1.00;;;;;;5009051;28;20496;-49
2023/01/14 10:13:29;;;;;;;5.00;0.80;;;9.40;1.00;;;;;;5006788;28;21279;-54
2023/01/14 10:16:03;;;;;;;6.00;1.00;;;9.40;1.00;;;;;;5008167;28;20787;-50
2023/01/14 10:18:34;;;;;;;5.40;0.60;;;9.40;1.00;;;;;;4987118;28;20472;-50
2023/01/14 10:21:11;;;;;;;4.50;0.80;;;9.30;1.00;;;;;;4988558;28;20395;-50
2023/01/14 10:23:40;;;;;;;5.40;1.00;;;9.40;1.00;;;;;;4987993;28;20422;-50
2023/01/14 10:26:20;;;;;;;9.60;1.10;;;9.50;1.00;;;;;;4989298;28;20444;-49
2023/01/14 10:28:49;;;;;;;4.40;0.57;;;9.40;1.00;;;;;;4988467;28;20818;-51
2023/01/14 10:31:25;;;;;;;6.75;1.10;;;9.30;1.00;;;;;;4987120;28;20462;-54
2023/01/14 10:33:52;;;;;;;5.45;0.70;;;9.50;1.00;;;;;;4988800;28;20409;-50
2023/01/14 10:36:23;;;;;;;5.90;0.60;;;9.60;1.00;;;;;;4994527;28;20527;-50
2023/01/14 10:38:50;;;;;;;5.30;1.00;;;9.50;1.00;;;;;;4993935;28;20401;-50
2023/01/14 10:41:48;;;;;;;5.40;0.70;;;9.50;1.00;;;;;;5001962;28;20897;-50
2023/01/14 10:44:11;;;;;;;4.32;0.50;;;9.60;1.00;;;;;;4988109;28;20777;-50
2023/01/14 10:46:37;;;;;;;5.30;0.80;;;9.60;1.00;;;;;;4988117;28;20387;-50
2023/01/14 10:49:17;;;;;;;4.38;0.52;;;9.70;1.00;;;;;;4988813;28;20382;-49
2023/01/14 10:51:47;;;;;;;5.22;0.70;;;9.80;1.00;;;;;;5004228;28;20381;-49
2023/01/14 10:54:16;;;;;;;4.45;0.50;;;9.80;1.00;;;;;;4998505;28;20453;-55
2023/01/14 10:56:54;;;;;;;4.63;0.60;;;9.90;1.00;;;;;;4988734;28;20383;-50
2023/01/14 10:59:30;;;;;;;4.60;0.60;;;9.90;1.00;;;;;;4987960;28;20477;-51
2023/01/14 11:01:56;;;;;;;5.80;0.50;;;9.80;1.00;;;;;;4988850;28;20481;-50
2023/01/14 11:04:26;;;;;;;5.30;0.77;;;9.70;1.00;;;;;;4987660;28;20483;-50
2023/01/14 11:06:52;;;;;;;7.40;0.70;;;9.80;1.00;;;;;;4990733;28;20408;-51
2023/01/14 11:09:23;;;;;;;5.70;1.00;;;9.90;1.00;;;;;;4998800;28;20804;-51
2023/01/14 11:11:49;;;;;;;7.20;0.80;;;9.70;1.00;;;;;;5000393;28;20464;-50
2023/01/14 11:14:37;;;;;;;4.30;0.60;;;9.70;99.90;;;;;;4998882;28;20416;-55
2023/01/14 11:17:22;;;;;;;6.30;0.70;;;9.80;99.90;;;;;;5007412;28;20427;-50
2023/01/14 11:19:49;;;;;;;6.07;0.95;;;9.90;99.90;;;;;;5010463;28;20391;-49
2023/01/14 11:22:15;;;;;;;7.20;0.90;;;10.00;99.90;;;;;;5010713;28;20413;-53
2023/01/14 11:24:44;;;;;;;4.70;0.70;;;10.00;99.90;;;;;;5004805;28;20410;-50
2023/01/14 11:27:17;;;;;;;5.78;0.90;;;10.10;99.90;;;;;;5000385;28;20387;-49
2023/01/14 11:29:54;;;;;;;4.60;0.70;;;10.00;99.90;;;;;;4991629;28;20477;-50
2023/01/14 11:32:32;;;;;;;5.85;0.70;;;9.90;99.90;;;;;;4990120;28;20391;-50
2023/01/14 11:35:00;;;;;;;4.30;0.70;;;9.90;99.90;;;;;;4991789;28;20414;-53
2023/01/14 11:38:06;;;;;;;4.63;0.60;;;10.10;99.90;;;;;;4991380;28;20391;-50
2023/01/14 11:43:22;;;;;;;4.97;0.80;;;10.00;99.90;;;;;;5010375;28;20414;-50
2023/01/14 11:46:12;;;;;;;6.30;0.95;;;10.10;99.90;;;;;;5004821;28;20936;-50
2023/01/14 11:48:40;;;;;;;5.00;0.70;;;10.20;99.90;;;;;;5009635;28;20408;-50
2023/01/14 11:51:19;;;;;;;5.00;0.60;;;11.00;99.90;;;;;;5010947;28;20389;-50
2023/01/14 11:53:52;;;;;;;4.70;0.70;;;10.10;99.90;;;;;;5005008;28;20405;-50
2023/01/14 11:56:31;;;;;;;4.40;0.70;;;10.10;99.90;;;;;;4990595;28;20397;-52
2023/01/14 11:58:57;;;;;;;5.20;0.80;;;10.20;99.90;;;;;;5002665;28;20508;-49
2023/01/14 12:01:36;;;;;;;10.23;1.10;;;10.40;99.90;;;;;;5010334;28;20420;-49
2023/01/14 12:04:21;;;;;;;4.60;0.70;;;10.60;99.90;;;;;;5011012;28;20439;-52
2023/01/14 12:07:07;;;;;;;5.90;0.70;;;10.60;99.90;;;;;;5010817;28;20395;-48
2023/01/14 12:09:38;;;;;;;5.00;0.73;;;10.50;99.90;;;;;;5002599;28;20412;-50
2023/01/14 12:12:20;;;;;;;4.70;0.68;;;10.40;99.90;;;;;;5004882;28;20412;-49
2023/01/14 12:17:50;;;;;;;4.72;0.65;;;10.40;99.90;;;;;;5003647;28;20377;-50
2023/01/14 12:20:19;;;;;;;4.20;0.60;;;10.60;99.90;;;;;;5000658;28;20564;-55
2023/01/14 12:23:17;;;;;;;4.80;0.60;;;10.50;99.90;;;;;;5007893;28;20506;-53
2023/01/14 12:25:46;;;;;;;4.40;0.60;;;10.50;99.90;;;;;;5008263;28;20413;-51
2023/01/14 12:28:23;;;;;;;5.25;0.90;;;10.40;99.90;;;;;;5009530;28;20850;-50
2023/01/14 12:30:57;;;;;;;5.32;0.80;;;10.40;99.90;;;;;;5007974;28;20485;-51
2023/01/14 12:33:52;;;;;;;6.00;0.70;;;10.40;99.90;;;;;;5008823;28;20428;-51
2023/01/14 12:36:24;;;;;;;6.40;0.73;;;10.50;99.90;;;;;;5009134;28;20396;-55
2023/01/14 12:47:46;;;;;;;4.70;0.70;;;10.40;99.90;;;;;;4995139;28;20378;-50
2023/01/14 12:50:15;;;;;;;5.60;0.80;;;10.20;99.90;;;;;;5002957;28;20381;-50
2023/01/14 12:52:48;;;;;;;5.82;0.82;;;10.30;99.90;;;;;;5009307;28;20408;-50
2023/01/14 12:55:38;;;;;;;5.20;0.80;;;10.30;99.90;;;;;;5005731;28;20519;-54
2023/01/14 12:58:14;;;;;;;4.40;0.80;;;10.40;99.90;;;;;;4992387;28;20420;-47
2023/01/14 13:00:40;;;;;;;5.00;1.15;;;10.60;99.90;;;;;;4999928;28;20992;-49
2023/01/14 13:03:14;;;;;;;4.90;0.70;;;10.70;99.90;;;;;;5006092;28;20482;-48
2023/01/14 13:05:42;;;;;;;4.63;0.65;;;10.80;99.90;;;;;;5001669;28;20405;-49
2023/01/14 13:08:20;;;;;;;6.85;1.00;;;10.80;99.90;;;;;;5003800;28;20898;-48
2023/01/14 13:11:01;;;;;;;5.18;0.70;;;12.00;99.90;;;;;;5003446;28;20389;-51
2023/01/14 13:13:29;;;;;;;5.85;1.00;;;10.80;99.90;;;;;;5000492;28;20408;-55
2023/01/14 13:15:57;;;;;;;7.07;0.88;;;10.80;99.90;;;;;;5006770;28;20504;-51
2023/01/14 13:18:34;;;;;;;5.23;0.90;;;10.70;89.90;;;;;;5004838;28;20454;-50
2023/01/14 13:21:05;;;;;;;4.60;0.80;;;11.30;70.30;;;;;;5009279;28;20424;-51
2023/01/14 13:23:37;;;;;;;7.25;0.90;;;10.60;80.00;;;;;;5007754;28;20425;-51
2023/01/14 13:26:29;;;;;;;5.90;1.00;;;10.70;93.70;;;;;;5002461;28;20409;-54
2023/01/14 13:29:16;;;;;;;5.93;0.80;;;10.70;96.70;;;;;;4972075;28;20496;-51
2023/01/14 13:31:43;;;;;;;4.75;1.00;;;10.70;77.00;;;;;;5005549;28;20385;-51
2023/01/14 13:34:24;;;;;;;4.38;0.75;;;10.60;60.20;;;;;;5009029;28;20408;-52
2023/01/14 13:37:05;;;;;;;5.32;1.00;;;10.60;52.50;;;;;;5008818;28;20389;-50
2023/01/14 13:39:32;;;;;;;4.20;0.60;;;10.60;33.90;;;;;;5008289;28;20393;-50
2023/01/14 13:42:21;;;;;;;6.40;0.73;;;10.60;12.60;;;;;;5008863;28;20381;-50
2023/01/14 13:44:49;;;;;;;6.00;0.60;;;10.70;14.20;;;;;;5008729;28;20397;-50
2023/01/14 13:47:31;;;;;;;5.90;0.80;;;10.60;3.00;;;;;;5009126;28;20395;-54
2023/01/14 13:50:01;;;;;;;5.50;0.70;;;10.50;1.00;;;;;;5008999;28;20469;-51
2023/01/14 13:52:30;;;;;;;5.75;0.90;;;10.40;1.00;;;;;;5008039;28;20839;-50
2023/01/14 13:55:22;;;;;;;5.20;0.70;;;10.30;1.00;;;;;;5008645;28;20789;-50
2023/01/14 13:57:51;;;;;;;5.90;0.90;;;10.30;1.00;;;;;;5009041;28;20473;-51